createdAt,value
2022-08-26T00:02:12.532Z,14.45
2022-08-26T00:04:40.671Z,13.20
2022-08-26T00:07:08.276Z,13.10
2022-08-26T00:09:39.152Z,13.50
2022-08-26T00:12:09.552Z,12.68
2022-08-26T00:14:40.087Z,10.65
2022-08-26T00:17:08.590Z,10.48
2022-08-26T00:19:36.073Z,9.88
2022-08-26T00:22:03.904Z,8.48
2022-08-26T00:24:31.253Z,9.07
2022-08-26T00:26:58.735Z,7.40
2022-08-26T00:29:26.086Z,8.75
2022-08-26T00:31:53.473Z,6.88
2022-08-26T00:34:20.900Z,6.53
2022-08-26T00:36:49.236Z,6.40
2022-08-26T00:39:20.814Z,5.88
2022-08-26T00:41:48.663Z,5.45
2022-08-26T00:44:17.645Z,7.25
2022-08-26T00:46:59.411Z,6.35
2022-08-26T00:49:47.417Z,5.60
2022-08-26T00:52:21.693Z,5.25
2022-08-26T00:55:19.741Z,5.13
2022-08-26T00:57:51.202Z,6.70
2022-08-26T01:00:26.621Z,5.82
2022-08-26T01:02:56.067Z,5.78
2022-08-26T01:05:24.552Z,5.97
2022-08-26T01:07:52.157Z,6.22
2022-08-26T01:10:31.265Z,5.95
2022-08-26T01:13:07.116Z,5.13
2022-08-26T01:15:51.114Z,4.53
2022-08-26T01:18:19.949Z,6.50
2022-08-26T01:21:10.134Z,6.78
2022-08-26T01:23:51.694Z,6.13
2022-08-26T01:26:40.479Z,5.95
2022-08-26T01:29:14.894Z,5.68
2022-08-26T01:31:57.404Z,5.80
2022-08-26T01:34:37.481Z,5.20
2022-08-26T01:37:15.921Z,5.60
2022-08-26T01:39:49.899Z,4.88
2022-08-26T01:42:19.889Z,5.40
2022-08-26T01:44:59.299Z,5.65
2022-08-26T01:47:30.880Z,5.68
2022-08-26T01:50:06.314Z,4.95
2022-08-26T01:52:41.438Z,5.95
2022-08-26T01:55:14.991Z,5.45
2022-08-26T01:57:59.900Z,5.53
2022-08-26T02:00:27.459Z,4.80
2022-08-26T02:03:17.204Z,5.32
2022-08-26T02:06:03.852Z,5.03
2022-08-26T02:08:47.893Z,4.43
2022-08-26T02:11:16.709Z,5.55
2022-08-26T02:13:55.617Z,5.93
2022-08-26T02:16:28.614Z,4.82
2022-08-26T02:19:00.211Z,5.00
2022-08-26T02:21:29.127Z,4.70
2022-08-26T02:24:13.722Z,5.15
2022-08-26T02:26:43.186Z,6.03
2022-08-26T02:29:41.354Z,5.43
2022-08-26T02:32:11.029Z,4.63
2022-08-26T02:34:38.837Z,5.47
2022-08-26T02:37:11.223Z,4.40
2022-08-26T02:39:42.715Z,4.47
2022-08-26T02:42:10.721Z,4.75
2022-08-26T02:44:38.349Z,4.25
2022-08-26T02:47:07.532Z,5.10
2022-08-26T02:49:36.755Z,5.00
2022-08-26T02:52:07.219Z,4.95
2022-08-26T02:54:35.120Z,6.32
2022-08-26T02:57:04.011Z,4.50
2022-08-26T02:59:35.945Z,4.63
2022-08-26T03:02:03.846Z,4.20
2022-08-26T03:04:33.488Z,5.85
2022-08-26T03:07:01.072Z,4.50
2022-08-26T03:09:28.703Z,5.10
2022-08-26T03:11:56.139Z,5.65
2022-08-26T03:14:24.184Z,5.38
2022-08-26T03:16:54.001Z,4.88
2022-08-26T03:19:24.782Z,5.38
2022-08-26T03:21:57.940Z,5.35
2022-08-26T03:24:26.937Z,4.72
2022-08-26T03:26:54.211Z,4.85
2022-08-26T03:29:41.590Z,5.22
2022-08-26T03:32:09.950Z,4.25
2022-08-26T03:34:38.012Z,5.32
2022-08-26T03:37:06.340Z,4.10
2022-08-26T03:39:33.789Z,4.00
2022-08-26T03:42:01.576Z,4.60
2022-08-26T03:44:29.098Z,3.90
2022-08-26T03:46:56.600Z,4.82
2022-08-26T03:49:24.145Z,4.38
2022-08-26T03:51:51.555Z,4.15
2022-08-26T03:54:19.170Z,4.60
2022-08-26T03:56:46.729Z,4.38
2022-08-26T03:59:14.085Z,4.07
2022-08-26T04:01:41.917Z,3.95
2022-08-26T04:04:09.441Z,4.28
2022-08-26T04:06:43.360Z,3.97
2022-08-26T04:09:20.162Z,3.67
2022-08-26T04:11:50.343Z,4.13
2022-08-26T04:14:26.400Z,3.88
2022-08-26T04:16:56.383Z,4.22
2022-08-26T04:19:25.914Z,3.45
2022-08-26T04:21:54.716Z,3.88
2022-08-26T04:24:27.176Z,3.65
2022-08-26T04:26:56.612Z,4.10
2022-08-26T04:29:26.819Z,4.13
2022-08-26T04:31:58.840Z,2.97
2022-08-26T04:34:29.117Z,3.50
2022-08-26T04:36:58.432Z,3.17
2022-08-26T04:39:27.684Z,2.92
2022-08-26T04:41:56.014Z,3.05
2022-08-26T04:44:29.275Z,3.47
2022-08-26T04:46:58.518Z,3.38
2022-08-26T04:49:29.430Z,3.00
2022-08-26T04:52:05.213Z,3.90
2022-08-26T04:54:32.771Z,2.90
2022-08-26T04:57:03.472Z,3.03
2022-08-26T04:59:30.765Z,2.70
2022-08-26T05:01:59.678Z,2.65
2022-08-26T05:04:28.410Z,3.38
2022-08-26T05:07:02.805Z,2.70
2022-08-26T05:09:30.638Z,3.53
2022-08-26T05:12:00.757Z,3.22
2022-08-26T05:14:31.186Z,3.45
2022-08-26T05:16:58.549Z,3.63
2022-08-26T05:19:27.984Z,3.63
2022-08-26T05:21:55.527Z,3.80
2022-08-26T05:24:23.428Z,4.13
2022-08-26T05:26:50.744Z,2.47
2022-08-26T05:29:18.829Z,3.10
2022-08-26T05:31:55.953Z,3.28
2022-08-26T05:34:30.066Z,2.97
2022-08-26T05:36:58.309Z,3.47
2022-08-26T05:39:25.878Z,3.28
2022-08-26T05:41:53.348Z,3.30
2022-08-26T05:44:23.844Z,3.40
2022-08-26T05:46:51.867Z,3.95
2022-08-26T05:49:20.311Z,3.63
2022-08-26T05:51:50.011Z,3.40
2022-08-26T05:54:22.371Z,3.67
2022-08-26T05:56:51.933Z,4.17
2022-08-26T05:59:23.916Z,3.53
2022-08-26T06:01:54.974Z,4.28
2022-08-26T06:04:29.134Z,3.40
2022-08-26T06:06:58.393Z,5.07
2022-08-26T06:09:28.524Z,3.72
2022-08-26T06:11:58.830Z,3.70
2022-08-26T06:14:26.192Z,2.95
2022-08-26T06:16:54.391Z,3.65
2022-08-26T06:19:22.527Z,3.13
2022-08-26T06:21:54.657Z,3.03
2022-08-26T06:24:41.048Z,2.53
2022-08-26T06:27:13.450Z,2.50
2022-08-26T06:29:41.853Z,2.80
2022-08-26T06:32:09.393Z,3.03
2022-08-26T06:34:37.194Z,2.30
2022-08-26T06:37:06.384Z,2.30
2022-08-26T06:39:35.310Z,3.03
2022-08-26T06:42:08.109Z,2.10
2022-08-26T06:44:35.516Z,2.20
2022-08-26T06:47:04.907Z,3.17
2022-08-26T06:49:32.213Z,1.83
2022-08-26T06:51:59.524Z,2.80
2022-08-26T06:54:31.704Z,3.03
2022-08-26T06:57:09.924Z,2.17
2022-08-26T06:59:37.441Z,2.25
2022-08-26T07:02:08.199Z,2.40
2022-08-26T07:04:35.763Z,2.03
2022-08-26T07:07:04.519Z,2.70
2022-08-26T07:09:38.162Z,2.33
2022-08-26T07:12:12.711Z,2.42
2022-08-26T07:14:47.289Z,3.10
2022-08-26T07:17:25.017Z,3.25
2022-08-26T07:19:53.655Z,2.47
2022-08-26T07:22:23.757Z,1.90
2022-08-26T07:24:57.557Z,2.33
2022-08-26T07:27:25.292Z,2.47
2022-08-26T07:29:57.518Z,2.33
2022-08-26T07:32:37.532Z,3.22
2022-08-26T07:35:06.469Z,2.03
2022-08-26T07:37:35.490Z,2.28
2022-08-26T07:40:07.653Z,2.75
2022-08-26T07:42:36.796Z,2.80
2022-08-26T07:45:05.920Z,2.03
2022-08-26T07:47:33.754Z,2.20
2022-08-26T07:50:01.273Z,2.35
2022-08-26T07:52:30.790Z,1.98
2022-08-26T07:55:02.539Z,1.73
2022-08-26T07:57:30.828Z,2.25
2022-08-26T08:00:02.386Z,1.98
2022-08-26T08:02:40.007Z,2.38
2022-08-26T08:05:09.072Z,2.38
2022-08-26T08:07:38.594Z,2.13
2022-08-26T08:10:25.967Z,2.03
2022-08-26T08:12:56.267Z,2.47
2022-08-26T08:15:28.816Z,2.13
2022-08-26T08:18:00.994Z,1.98
2022-08-26T08:20:33.298Z,2.23
2022-08-26T08:23:04.273Z,2.10
2022-08-26T08:25:34.526Z,2.13
2022-08-26T08:28:02.067Z,2.00
2022-08-26T08:30:29.892Z,2.45
2022-08-26T08:32:57.577Z,2.13
2022-08-26T08:35:26.538Z,1.90
2022-08-26T08:37:56.539Z,3.03
2022-08-26T08:40:27.519Z,2.22
2022-08-26T08:43:29.285Z,2.05
2022-08-26T08:46:12.519Z,2.13
2022-08-26T08:48:48.174Z,2.13
2022-08-26T08:52:00.753Z,2.03
2022-08-26T08:54:29.150Z,2.15
2022-08-26T08:57:17.072Z,2.47
2022-08-26T09:00:14.072Z,1.90
2022-08-26T09:03:09.734Z,2.00
2022-08-26T09:05:48.515Z,1.95
2022-08-26T09:08:32.369Z,2.63
2022-08-26T09:11:03.419Z,3.03
2022-08-26T09:13:31.755Z,2.17
2022-08-26T09:16:13.837Z,2.10
2022-08-26T09:19:15.247Z,2.10
2022-08-26T09:21:54.437Z,2.08
2022-08-26T09:24:28.591Z,2.25
2022-08-26T09:26:59.158Z,2.55
2022-08-26T09:29:32.323Z,1.88
2022-08-26T09:32:24.404Z,2.70
2022-08-26T09:35:00.587Z,2.38
2022-08-26T09:40:34.690Z,2.40
2022-08-26T09:43:22.144Z,2.97
2022-08-26T09:46:09.560Z,2.75
2022-08-26T09:48:41.557Z,2.67
2022-08-26T09:51:38.841Z,2.72
2022-08-26T09:54:08.160Z,2.95
2022-08-26T09:56:39.311Z,1.92
2022-08-26T09:59:12.094Z,2.15
2022-08-26T10:01:43.814Z,3.00
2022-08-26T10:04:21.441Z,1.88
2022-08-26T10:07:08.181Z,3.03
2022-08-26T10:09:43.406Z,2.40
2022-08-26T10:12:21.784Z,3.20
2022-08-26T10:15:00.061Z,3.92
2022-08-26T10:18:12.073Z,2.30
2022-08-26T10:21:02.653Z,2.72
2022-08-26T10:23:45.135Z,2.83
2022-08-26T10:26:46.059Z,2.08
2022-08-26T10:29:43.451Z,2.25
2022-08-26T10:32:45.814Z,3.08
2022-08-26T10:35:18.050Z,2.65
2022-08-26T10:38:10.807Z,2.95
2022-08-26T10:41:11.012Z,2.58
2022-08-26T10:43:56.346Z,2.83
2022-08-26T10:46:37.287Z,3.08
2022-08-26T10:49:17.755Z,3.05
2022-08-26T10:52:17.897Z,2.67
2022-08-26T10:55:34.906Z,3.03
2022-08-26T10:58:31.946Z,3.42
2022-08-26T11:01:33.744Z,2.50
2022-08-26T11:04:38.713Z,2.38
2022-08-26T11:07:56.377Z,2.40
2022-08-26T11:10:24.367Z,2.35
2022-08-26T11:13:05.097Z,2.00
2022-08-26T11:15:32.431Z,2.45
2022-08-26T11:18:11.698Z,2.15
2022-08-26T11:20:46.042Z,3.35
2022-08-26T11:23:23.423Z,1.80
2022-08-26T11:28:44.130Z,2.35
2022-08-26T11:31:38.730Z,2.42
2022-08-26T11:34:12.698Z,1.80
2022-08-26T11:36:45.909Z,2.53
2022-08-26T11:39:56.982Z,1.83
2022-08-26T11:43:02.987Z,1.70
2022-08-26T11:45:43.131Z,2.88
2022-08-26T11:48:35.460Z,1.80
2022-08-26T11:51:20.341Z,1.83
2022-08-26T11:53:48.374Z,1.98
2022-08-26T11:56:38.175Z,2.08
2022-08-26T12:02:18.129Z,2.10
2022-08-26T12:04:51.853Z,2.20
2022-08-26T12:07:29.066Z,2.97
2022-08-26T12:10:02.226Z,1.90
2022-08-26T12:12:40.677Z,2.45
2022-08-26T12:15:22.213Z,2.38
2022-08-26T12:17:54.559Z,1.85
2022-08-26T12:20:48.394Z,2.20
2022-08-26T12:23:42.079Z,2.17
2022-08-26T12:26:31.925Z,1.95
2022-08-26T12:29:19.936Z,1.65
2022-08-26T12:31:48.257Z,2.90
2022-08-26T12:34:18.446Z,1.75
2022-08-26T12:36:55.837Z,2.10
2022-08-26T12:39:36.257Z,2.05
2022-08-26T12:42:12.478Z,1.90
2022-08-26T12:45:00.749Z,1.98
2022-08-26T12:47:44.307Z,2.15
2022-08-26T12:50:26.604Z,1.88
2022-08-26T12:53:04.165Z,2.03
2022-08-26T12:55:47.605Z,2.58
2022-08-26T12:58:35.939Z,1.90
2022-08-26T13:01:09.287Z,2.20
2022-08-26T13:03:43.838Z,2.00
2022-08-26T13:06:23.182Z,1.58
2022-08-26T13:09:00.678Z,2.50
2022-08-26T13:11:38.982Z,1.70
2022-08-26T13:14:24.244Z,2.22
2022-08-26T13:16:53.169Z,1.60
2022-08-26T13:19:29.135Z,1.98
2022-08-26T13:22:01.041Z,2.63
2022-08-26T13:24:41.872Z,1.70
2022-08-26T13:27:14.127Z,1.88
2022-08-26T13:29:42.067Z,2.00
2022-08-26T13:32:09.988Z,1.63
2022-08-26T13:34:39.034Z,1.65
2022-08-26T13:37:07.306Z,1.85
2022-08-26T13:39:35.330Z,2.03
2022-08-26T13:42:02.632Z,1.90
2022-08-26T13:44:30.051Z,2.03
2022-08-26T13:46:57.772Z,1.60
2022-08-26T13:49:25.610Z,1.75
2022-08-26T13:51:53.075Z,1.40
2022-08-26T13:54:20.552Z,1.50
2022-08-26T13:56:47.917Z,1.95
2022-08-26T13:59:15.415Z,1.20
2022-08-26T14:01:42.779Z,1.40
2022-08-26T14:04:10.275Z,1.23
2022-08-26T14:06:37.636Z,2.58
2022-08-26T14:09:05.488Z,1.70
2022-08-26T14:11:50.691Z,1.80
2022-08-26T14:14:20.673Z,2.72
2022-08-26T14:16:58.849Z,2.17
2022-08-26T14:19:30.243Z,1.17
2022-08-26T14:22:00.813Z,1.65
2022-08-26T14:24:29.108Z,1.15
2022-08-26T14:26:56.559Z,1.38
2022-08-26T14:29:25.078Z,1.40
2022-08-26T14:31:52.830Z,1.70
2022-08-26T14:34:20.264Z,1.45
2022-08-26T14:36:47.626Z,2.03
2022-08-26T14:39:15.029Z,2.42
2022-08-26T14:41:55.206Z,1.52
2022-08-26T14:44:31.264Z,1.40
2022-08-26T14:47:04.235Z,2.55
2022-08-26T14:49:31.833Z,2.47
2022-08-26T14:52:00.025Z,1.92
2022-08-26T14:54:29.299Z,2.75
2022-08-26T14:57:07.117Z,2.95
2022-08-26T14:59:50.084Z,1.88
2022-08-26T15:02:18.170Z,1.90
2022-08-26T15:05:01.173Z,2.38
2022-08-26T15:07:32.603Z,1.95
2022-08-26T15:10:00.290Z,2.45
2022-08-26T15:12:27.863Z,3.22
2022-08-26T15:14:55.334Z,2.50
2022-08-26T15:17:23.487Z,2.78
2022-08-26T15:19:52.173Z,2.50
2022-08-26T15:22:20.052Z,1.85
2022-08-26T15:24:47.483Z,1.65
2022-08-26T15:27:19.794Z,2.63
2022-08-26T15:29:47.237Z,1.52
2022-08-26T15:32:14.671Z,1.63
2022-08-26T15:34:42.043Z,1.70
2022-08-26T15:37:09.739Z,1.73
2022-08-26T15:39:37.231Z,1.23
2022-08-26T15:42:05.353Z,1.50
2022-08-26T15:44:34.106Z,3.10
2022-08-26T15:47:01.543Z,1.77
2022-08-26T15:49:29.029Z,2.45
2022-08-26T15:51:56.441Z,2.22
2022-08-26T15:54:24.442Z,2.03
2022-08-26T15:56:53.074Z,1.95
2022-08-26T15:59:22.299Z,1.75
2022-08-26T16:01:50.379Z,1.60
2022-08-26T16:04:18.706Z,2.10
2022-08-26T16:06:50.439Z,1.90
2022-08-26T16:09:21.338Z,1.70
2022-08-26T16:11:49.992Z,1.80
2022-08-26T16:14:17.501Z,1.75
2022-08-26T16:16:45.037Z,1.88
2022-08-26T16:19:12.766Z,1.30
2022-08-26T16:21:41.737Z,1.80
2022-08-26T16:24:09.542Z,1.98
2022-08-26T16:26:41.265Z,1.98
2022-08-26T16:29:13.826Z,2.25
2022-08-26T16:31:42.330Z,1.95
2022-08-26T16:34:10.545Z,2.00
2022-08-26T16:36:40.474Z,2.00
2022-08-26T16:39:09.789Z,2.38
2022-08-26T16:41:37.654Z,1.67
2022-08-26T16:44:08.267Z,2.60
2022-08-26T16:46:36.535Z,1.80
2022-08-26T16:49:04.616Z,1.73
2022-08-26T16:51:38.093Z,1.85
2022-08-26T16:54:08.877Z,2.22
2022-08-26T16:56:37.921Z,2.72
2022-08-26T16:59:11.552Z,1.70
2022-08-26T17:01:39.099Z,1.63
2022-08-26T17:04:06.770Z,1.73
2022-08-26T17:06:34.296Z,2.38
2022-08-26T17:09:01.773Z,1.70
2022-08-26T17:11:29.178Z,1.92
2022-08-26T17:13:57.429Z,1.83
2022-08-26T17:16:27.116Z,1.77
2022-08-26T17:18:57.517Z,1.80
2022-08-26T17:21:26.380Z,2.20
2022-08-26T17:23:55.194Z,2.17
2022-08-26T17:26:22.776Z,1.55
2022-08-26T17:28:51.255Z,1.90
2022-08-26T17:31:20.307Z,2.42
2022-08-26T17:33:53.298Z,2.40
2022-08-26T17:36:27.501Z,1.92
2022-08-26T17:38:58.321Z,1.75
2022-08-26T17:41:26.718Z,1.98
2022-08-26T17:43:54.638Z,2.03
2022-08-26T17:46:22.615Z,2.15
2022-08-26T17:48:50.110Z,1.77
2022-08-26T17:51:19.855Z,1.85
2022-08-26T17:53:48.587Z,2.15
2022-08-26T17:56:24.168Z,2.47
2022-08-26T17:58:56.501Z,1.60
2022-08-26T18:01:27.576Z,2.28
2022-08-26T18:04:00.247Z,2.38
2022-08-26T18:06:30.690Z,2.80
2022-08-26T18:09:00.802Z,1.95
2022-08-26T18:11:32.109Z,1.52
2022-08-26T18:14:00.589Z,2.35
2022-08-26T18:16:32.115Z,1.75
2022-08-26T18:19:00.394Z,2.15
2022-08-26T18:21:28.345Z,2.58
2022-08-26T18:23:56.516Z,2.00
2022-08-26T18:26:31.903Z,2.40
2022-08-26T18:29:00.610Z,1.95
2022-08-26T18:31:29.164Z,2.10
2022-08-26T18:33:58.337Z,2.70
2022-08-26T18:36:33.318Z,1.90
2022-08-26T18:39:02.527Z,2.65
2022-08-26T18:41:33.719Z,2.47
2022-08-26T18:44:01.367Z,2.67
2022-08-26T18:46:29.010Z,2.47
2022-08-26T18:48:57.816Z,1.90
2022-08-26T18:51:33.006Z,1.77
2022-08-26T18:54:04.725Z,2.38
2022-08-26T18:56:35.173Z,2.33
2022-08-26T18:59:04.852Z,2.13
2022-08-26T19:01:34.349Z,1.92
2022-08-26T19:04:06.118Z,2.00
2022-08-26T19:06:36.063Z,1.70
2022-08-26T19:09:08.911Z,3.05
2022-08-26T19:11:42.998Z,2.08
2022-08-26T19:14:15.566Z,3.05
2022-08-26T19:16:48.559Z,2.20
2022-08-26T19:19:17.199Z,2.17
2022-08-26T19:21:45.493Z,2.53
2022-08-26T19:24:17.591Z,2.03
2022-08-26T19:26:51.349Z,2.00
2022-08-26T19:29:33.490Z,2.30
2022-08-26T19:32:03.041Z,2.10
2022-08-26T19:34:31.109Z,2.13
2022-08-26T19:36:59.125Z,1.83
2022-08-26T19:39:27.745Z,2.00
2022-08-26T19:41:55.137Z,2.13
2022-08-26T19:44:42.986Z,2.45
2022-08-26T19:47:12.109Z,1.85
2022-08-26T19:49:39.667Z,2.38
2022-08-26T19:52:09.251Z,2.13
2022-08-26T19:54:37.551Z,2.88
2022-08-26T19:57:06.117Z,2.05
2022-08-26T19:59:33.725Z,2.30
2022-08-26T20:02:01.992Z,2.88
2022-08-26T20:04:33.112Z,2.10
2022-08-26T20:07:03.196Z,2.28
2022-08-26T20:09:34.024Z,2.13
2022-08-26T20:12:05.115Z,2.45
2022-08-26T20:14:33.639Z,2.72
2022-08-26T20:17:02.684Z,1.50
2022-08-26T20:19:48.777Z,1.55
2022-08-26T20:22:17.450Z,1.75
2022-08-26T20:24:46.215Z,1.70
2022-08-26T20:27:15.470Z,2.13
2022-08-26T20:29:43.088Z,2.00
2022-08-26T20:32:11.999Z,1.90
2022-08-26T20:34:40.049Z,2.63
2022-08-26T20:37:08.475Z,2.35
2022-08-26T20:39:36.335Z,2.42
2022-08-26T20:42:06.667Z,1.90
2022-08-26T20:44:54.411Z,1.92
2022-08-26T20:47:23.166Z,2.30
2022-08-26T20:49:52.576Z,2.17
2022-08-26T20:52:20.827Z,2.22
2022-08-26T20:54:48.211Z,2.60
2022-08-26T20:57:15.776Z,2.15
2022-08-26T20:59:43.538Z,2.22
2022-08-26T21:02:11.019Z,2.20
2022-08-26T21:04:38.530Z,2.97
2022-08-26T21:07:06.068Z,2.38
2022-08-26T21:09:33.519Z,2.13
2022-08-26T21:12:00.855Z,2.92
2022-08-26T21:14:28.869Z,2.50
2022-08-26T21:16:57.258Z,3.95
2022-08-26T21:19:24.630Z,4.43
2022-08-26T21:21:52.073Z,3.85
2022-08-26T21:24:19.640Z,3.30
2022-08-26T21:26:48.027Z,3.10
2022-08-26T21:29:15.540Z,2.70
2022-08-26T21:31:46.628Z,3.70
2022-08-26T21:34:18.441Z,2.83
2022-08-26T21:36:49.831Z,3.25
2022-08-26T21:39:19.642Z,2.42
2022-08-26T21:41:47.560Z,3.30
2022-08-26T21:44:17.747Z,2.50
2022-08-26T21:46:46.951Z,2.20
2022-08-26T21:49:17.013Z,2.55
2022-08-26T21:51:48.395Z,2.65
2022-08-26T21:54:17.405Z,2.58
2022-08-26T21:56:47.394Z,2.70
2022-08-26T21:59:19.305Z,2.55
2022-08-26T22:01:47.571Z,2.92
2022-08-26T22:04:16.153Z,3.83
2022-08-26T22:06:49.558Z,2.13
2022-08-26T22:09:25.290Z,2.80
2022-08-26T22:11:56.539Z,2.10
2022-08-26T22:14:30.361Z,2.50
2022-08-26T22:16:59.768Z,2.03
2022-08-26T22:19:27.499Z,2.72
2022-08-26T22:21:56.772Z,2.72
2022-08-26T22:24:27.427Z,2.08
2022-08-26T22:26:56.114Z,2.75
2022-08-26T22:29:25.164Z,2.22
2022-08-26T22:31:52.937Z,1.90
2022-08-26T22:34:21.223Z,2.17
2022-08-26T22:36:50.830Z,2.33
2022-08-26T22:39:23.761Z,2.20
2022-08-26T22:41:53.841Z,2.00
2022-08-26T22:44:22.429Z,2.40
2022-08-26T22:46:54.165Z,1.80
2022-08-26T22:49:23.296Z,2.17
2022-08-26T22:51:51.927Z,2.80
2022-08-26T22:54:19.323Z,2.38
2022-08-26T22:56:46.719Z,2.20
2022-08-26T22:59:15.941Z,2.90
2022-08-26T23:01:44.683Z,2.38
2022-08-26T23:04:12.325Z,1.95
2022-08-26T23:06:43.432Z,2.30
2022-08-26T23:09:18.252Z,2.63
2022-08-26T23:11:48.635Z,2.22
2022-08-26T23:14:18.854Z,2.13
2022-08-26T23:16:47.893Z,2.03
2022-08-26T23:19:19.722Z,2.13
2022-08-26T23:21:48.421Z,2.63
2022-08-26T23:24:17.358Z,1.90
2022-08-26T23:26:46.408Z,2.53
2022-08-26T23:29:15.978Z,3.25
2022-08-26T23:31:44.211Z,3.10
2022-08-26T23:34:30.289Z,2.90
2022-08-26T23:36:59.459Z,2.65
2022-08-26T23:39:29.422Z,2.22
2022-08-26T23:41:57.994Z,2.63
2022-08-26T23:44:26.528Z,3.72
2022-08-26T23:46:55.065Z,2.88
2022-08-26T23:49:23.036Z,3.10
2022-08-26T23:52:08.764Z,2.22
2022-08-26T23:54:36.581Z,3.10
2022-08-26T23:57:04.330Z,2.20
2022-08-26T23:59:32.208Z,2.53
